Time;durP1;ratioP1;P1;durP2;ratioP2;P2;SDS_P1;SDS_P2;PMS_P1;PMS_P2;Temp;Humidity;BMP_temperature;BMP_pressure;BME280_temperature;BME280_humidity;BME280_pressure;Samples;Min_cycle;Max_cycle;Signal;HPM_P1;HPM_P2
2023/11/04 00:04:51;;;;;;;5.07;2.53;;;7.40;1.00;;;;;;5018854;28;20952;-83
2023/11/04 00:07:19;;;;;;;4.70;2.27;;;7.40;1.00;;;;;;5022945;28;20420;-74
2023/11/04 00:09:45;;;;;;;5.20;2.27;;;7.50;1.00;;;;;;5016587;28;20426;-74
2023/11/04 00:12:25;;;;;;;10.73;2.20;;;7.60;1.00;;;;;;5012568;28;20429;-74
2023/11/04 00:14:55;;;;;;;3.80;2.40;;;7.70;1.00;;;;;;5010260;28;20445;-74
2023/11/04 00:17:21;;;;;;;3.93;1.67;;;7.70;1.00;;;;;;5025408;28;20511;-74
2023/11/04 00:19:47;;;;;;;2.13;1.60;;;7.80;1.00;;;;;;5031156;28;20837;-74
2023/11/04 00:22:13;;;;;;;3.83;2.10;;;7.80;1.00;;;;;;5018590;28;20191;-74
2023/11/04 00:24:39;;;;;;;8.70;2.03;;;7.90;1.00;;;;;;5019850;28;20244;-74
2023/11/04 00:27:05;;;;;;;3.80;2.23;;;8.00;1.00;;;;;;5017995;28;20515;-74
2023/11/04 00:29:31;;;;;;;2.80;1.90;;;8.00;1.00;;;;;;5017144;28;20192;-74
2023/11/04 00:31:58;;;;;;;1.70;1.57;;;8.00;1.00;;;;;;5011980;28;20957;-74
2023/11/04 00:34:37;;;;;;;2.30;1.40;;;8.00;1.00;;;;;;5019954;28;20439;-74
2023/11/04 00:37:03;;;;;;;1.70;1.27;;;8.10;1.00;;;;;;5013106;28;20424;-74
2023/11/04 00:39:31;;;;;;;1.83;1.50;;;8.10;1.00;;;;;;5015111;28;20450;-83
2023/11/04 00:41:57;;;;;;;1.60;1.50;;;8.10;1.00;;;;;;5010662;28;20943;-82
2023/11/04 00:48:07;;;;;;;2.00;1.70;;;8.10;1.00;;;;;;5025537;28;20219;-83
2023/11/04 00:57:17;;;;;;;2.87;1.67;;;8.20;1.00;;;;;;5019425;28;20478;-82
2023/11/04 01:03:05;;;;;;;1.50;1.40;;;8.20;1.00;;;;;;5012037;28;20544;-82
2023/11/04 01:05:49;;;;;;;2.00;1.20;;;8.30;1.00;;;;;;5015229;28;20432;-82
2023/11/04 01:11:37;;;;;;;2.73;1.27;;;8.30;1.00;;;;;;5012807;28;20415;-82
2023/11/04 01:27:31;;;;;;;2.63;1.23;;;8.50;1.00;;;;;;5011214;28;20466;-82
2023/11/04 01:33:19;;;;;;;2.03;0.77;;;8.60;1.00;;;;;;5006141;28;20262;-83
2023/11/04 01:36:01;;;;;;;5.23;1.30;;;8.60;1.00;;;;;;5008034;28;20904;-82
2023/11/04 01:38:27;;;;;;;1.17;1.07;;;8.60;1.00;;;;;;4995734;28;20433;-82
2023/11/04 01:44:49;;;;;;;6.33;1.00;;;8.60;1.00;;;;;;5014525;28;20192;-82
2023/11/04 01:53:59;;;;;;;0.90;0.90;;;8.70;1.00;;;;;;5001327;28;20588;-74
2023/11/04 01:56:38;;;;;;;0.97;0.97;;;8.70;1.00;;;;;;5016886;28;20533;-74
2023/11/04 01:59:08;;;;;;;2.60;1.07;;;8.70;1.00;;;;;;5011178;28;20439;-74
2023/11/04 02:01:41;;;;;;;3.67;1.63;;;8.70;1.00;;;;;;5015671;28;20408;-74
2023/11/04 02:04:07;;;;;;;1.33;1.23;;;8.60;1.00;;;;;;5015217;28;20412;-74
2023/11/04 02:06:33;;;;;;;2.93;1.20;;;8.50;1.00;;;;;;5017835;28;20680;-74
2023/11/04 02:08:59;;;;;;;4.50;1.30;;;8.50;1.00;;;;;;5012957;28;20486;-74
2023/11/04 02:11:25;;;;;;;1.20;1.10;;;8.40;1.00;;;;;;5015382;28;20177;-74
2023/11/04 02:13:56;;;;;;;1.33;0.93;;;8.60;1.00;;;;;;5015619;28;20400;-74
2023/11/04 02:16:22;;;;;;;1.50;1.10;;;;;;;;;;5016077;28;20185;-74
2023/11/04 02:18:49;;;;;;;2.50;1.13;;;8.60;1.00;;;;;;5002123;28;20478;-74
2023/11/04 02:21:15;;;;;;;3.33;1.47;;;8.60;1.00;;;;;;5023826;28;20449;-74
2023/11/04 02:24:07;;;;;;;1.50;1.40;;;8.60;1.00;;;;;;5018420;28;20530;-82
2023/11/04 02:30:49;;;;;;;1.43;1.33;;;8.60;1.00;;;;;;5015285;28;20418;-81
2023/11/04 02:37:12;;;;;;;4.00;1.20;;;8.50;1.00;;;;;;5017625;28;20411;-82
2023/11/04 02:39:56;;;;;;;1.53;1.43;;;8.50;1.00;;;;;;5015993;28;20531;-82
2023/11/04 02:42:25;;;;;;;1.63;1.23;;;8.50;1.00;;;;;;5014269;28;20439;-82
2023/11/04 02:45:37;;;;;;;1.40;1.30;;;8.50;1.00;;;;;;5013366;28;20487;-82
2023/11/04 02:48:08;;;;;;;1.53;1.37;;;8.50;1.00;;;;;;5016082;28;20463;-82
2023/11/04 02:51:25;;;;;;;1.40;1.30;;;8.50;1.00;;;;;;5005627;28;20427;-82
2023/11/04 02:53:51;;;;;;;2.20;1.40;;;8.60;1.00;;;;;;5008444;28;20416;-74
2023/11/04 02:56:20;;;;;;;5.23;1.60;;;8.70;1.00;;;;;;5012562;28;21175;-74
2023/11/04 02:58:46;;;;;;;2.10;1.20;;;8.60;1.00;;;;;;5013560;28;20181;-74
2023/11/04 03:01:11;;;;;;;2.60;1.60;;;8.70;1.00;;;;;;5013852;28;20439;-75
2023/11/04 03:03:37;;;;;;;1.30;1.17;;;8.60;1.00;;;;;;5012282;28;20192;-74
2023/11/04 03:06:34;;;;;;;4.60;1.10;;;8.70;1.00;;;;;;5015817;28;20266;-74
2023/11/04 03:12:20;;;;;;;3.70;1.40;;;8.80;1.00;;;;;;4936984;29;20421;-82
2023/11/04 03:15:25;;;;;;;2.40;1.57;;;8.70;1.00;;;;;;4953238;29;20790;-82
2023/11/04 03:17:51;;;;;;;4.67;1.20;;;8.70;1.00;;;;;;4946457;28;20190;-82
2023/11/04 03:27:31;;;;;;;3.40;1.30;;;8.60;1.00;;;;;;4948483;28;20493;-82
2023/11/04 03:37:12;;;;;;;1.87;1.30;;;8.80;1.00;;;;;;4945475;28;20466;-82
2023/11/04 03:39:38;;;;;;;2.37;1.17;;;8.80;1.00;;;;;;4956090;28;20901;-73
2023/11/04 03:42:03;;;;;;;4.73;1.33;;;8.90;1.00;;;;;;4964825;28;20457;-74
2023/11/04 03:44:29;;;;;;;1.43;1.33;;;8.80;1.00;;;;;;4963748;28;20250;-74
2023/11/04 03:46:55;;;;;;;3.03;1.20;;;8.80;1.00;;;;;;5024997;28;20524;-74
2023/11/04 03:49:21;;;;;;;1.27;1.17;;;8.80;1.00;;;;;;5036469;28;20247;-74
2023/11/04 03:51:46;;;;;;;4.70;1.40;;;8.80;1.00;;;;;;5026557;28;20186;-74
2023/11/04 03:54:13;;;;;;;1.33;1.23;;;;;;;;;;5017993;28;20609;-74
2023/11/04 03:56:49;;;;;;;2.10;1.30;;;8.80;1.00;;;;;;5017969;28;20515;-74
2023/11/04 03:59:15;;;;;;;2.00;1.63;;;8.80;1.00;;;;;;5023862;28;20476;-74
2023/11/04 04:01:41;;;;;;;1.57;1.20;;;8.90;1.00;;;;;;5024825;28;20904;-74
2023/11/04 04:04:08;;;;;;;2.97;1.43;;;8.80;1.00;;;;;;5016076;28;20578;-74
2023/11/04 04:06:34;;;;;;;1.63;1.30;;;8.70;1.00;;;;;;5015670;28;20208;-74
2023/11/04 04:09:14;;;;;;;4.30;1.20;;;8.70;1.00;;;;;;5015930;28;20443;-74
2023/11/04 04:15:25;;;;;;;1.30;1.20;;;8.70;1.00;;;;;;5015371;28;20466;-82
2023/11/04 04:18:37;;;;;;;1.83;1.33;;;8.70;1.00;;;;;;5030400;28;20781;-82
2023/11/04 04:24:24;;;;;;;4.80;1.20;;;8.60;1.00;;;;;;5017206;28;20458;-74
2023/11/04 04:26:55;;;;;;;1.60;1.40;;;8.60;1.00;;;;;;5014876;28;20793;-74
2023/11/04 04:29:27;;;;;;;1.10;1.00;;;8.60;1.00;;;;;;5016547;28;20620;-74
2023/11/04 04:31:53;;;;;;;4.77;1.50;;;8.60;1.00;;;;;;5014971;28;20990;-74
2023/11/04 04:34:21;;;;;;;2.53;1.50;;;8.50;1.00;;;;;;5018660;28;20515;-74
2023/11/04 04:36:47;;;;;;;1.07;0.97;;;8.60;1.00;;;;;;5012502;28;20212;-74
2023/11/04 04:39:13;;;;;;;1.20;1.10;;;8.60;1.00;;;;;;5016028;28;20956;-74
2023/11/04 04:41:44;;;;;;;2.80;1.50;;;8.50;1.00;;;;;;5003714;28;20189;-74
2023/11/04 04:44:10;;;;;;;2.27;1.20;;;8.60;1.00;;;;;;5014765;28;20212;-75
2023/11/04 04:46:41;;;;;;;2.43;1.30;;;8.70;1.00;;;;;;5018122;28;20521;-74
2023/11/04 04:49:08;;;;;;;8.93;1.10;;;8.60;1.00;;;;;;5023243;28;20639;-74
2023/11/04 04:51:37;;;;;;;1.37;1.27;;;8.60;1.00;;;;;;5025554;28;20923;-74
2023/11/04 04:54:03;;;;;;;4.27;1.20;;;8.60;1.00;;;;;;5028750;28;20462;-74
2023/11/04 04:56:31;;;;;;;2.70;1.30;;;8.60;1.00;;;;;;5015191;28;20428;-74
2023/11/04 04:59:08;;;;;;;1.03;1.00;;;8.60;1.00;;;;;;5011346;28;20189;-75
2023/11/04 05:01:33;;;;;;;1.07;1.00;;;8.70;1.00;;;;;;5014326;28;21225;-74
2023/11/04 05:03:59;;;;;;;2.40;1.00;;;8.70;1.00;;;;;;5024035;28;20415;-74
2023/11/04 05:06:25;;;;;;;0.80;0.80;;;8.70;1.00;;;;;;5015196;28;20196;-74
2023/11/04 05:08:51;;;;;;;3.70;1.10;;;8.70;1.00;;;;;;5016646;28;20986;-74
2023/11/04 05:11:17;;;;;;;1.13;1.03;;;8.80;1.00;;;;;;5017435;28;20181;-74
2023/11/04 05:13:43;;;;;;;0.90;0.90;;;8.80;1.00;;;;;;5016514;28;20845;-76
2023/11/04 05:16:26;;;;;;;1.60;1.30;;;8.80;1.00;;;;;;5024785;28;20184;-75
2023/11/04 05:19:13;;;;;;;3.00;1.07;;;8.90;1.00;;;;;;5022625;28;20955;-81
2023/11/04 05:21:39;;;;;;;1.10;0.80;;;8.90;1.00;;;;;;5012666;28;20447;-81
2023/11/04 05:24:06;;;;;;;1.33;0.90;;;8.90;1.00;;;;;;5000082;28;20401;-81
2023/11/04 05:27:07;;;;;;;2.10;1.00;;;8.90;1.00;;;;;;5020455;28;20200;-81
2023/11/04 05:29:33;;;;;;;2.40;0.97;;;8.90;1.00;;;;;;5007398;28;20431;-81
2023/11/04 05:32:07;;;;;;;1.13;0.70;;;8.90;1.00;;;;;;5016841;28;20484;-82
2023/11/04 05:34:34;;;;;;;1.13;0.87;;;;;;;;;;5014839;28;20188;-81
2023/11/04 05:37:13;;;;;;;2.43;1.00;;;8.90;1.00;;;;;;5018453;28;20412;-81
2023/11/04 05:39:39;;;;;;;1.03;0.80;;;9.20;1.00;;;;;;5013187;28;20901;-81
2023/11/04 05:42:37;;;;;;;1.00;0.90;;;9.00;1.00;;;;;;5024780;28;20462;-81
2023/11/04 05:45:20;;;;;;;2.83;0.90;;;8.90;1.00;;;;;;5015924;28;20196;-81
2023/11/04 05:51:07;;;;;;;1.00;1.00;;;8.90;1.00;;;;;;5010590;28;20408;-81
2023/11/04 05:56:55;;;;;;;1.63;1.00;;;8.90;1.00;;;;;;5014606;28;20198;-85
2023/11/04 05:59:38;;;;;;;0.80;0.80;;;8.90;1.00;;;;;;5013361;28;20796;-85
2023/11/04 06:02:08;;;;;;;0.80;0.80;;;8.90;1.00;;;;;;5013217;28;20181;-85
2023/11/04 06:05:25;;;;;;;1.00;0.90;;;8.80;1.00;;;;;;5015931;28;20438;-85
2023/11/04 06:12:07;;;;;;;0.70;0.70;;;8.90;1.00;;;;;;5017260;28;20485;-84
2023/11/04 06:15:08;;;;;;;0.70;0.70;;;8.90;1.00;;;;;;5010248;28;20440;-84
2023/11/04 06:17:53;;;;;;;1.13;1.00;;;8.90;1.00;;;;;;5010637;28;20863;-84
2023/11/04 06:20:38;;;;;;;1.33;0.90;;;8.90;1.00;;;;;;5006659;28;20879;-84
2023/11/04 06:26:38;;;;;;;1.00;0.90;;;8.80;1.00;;;;;;4999825;28;20466;-84
2023/11/04 06:32:26;;;;;;;2.87;0.87;;;8.90;1.00;;;;;;5014154;28;20368;-85
2023/11/04 06:41:31;;;;;;;1.97;0.70;;;8.80;1.00;;;;;;5014115;28;20434;-84
2023/11/04 06:44:37;;;;;;;0.90;0.90;;;8.80;1.00;;;;;;5012483;28;20427;-84
2023/11/04 06:47:37;;;;;;;0.67;0.67;;;8.90;1.00;;;;;;5024969;28;21053;-83
2023/11/04 06:50:37;;;;;;;1.20;0.80;;;8.90;1.00;;;;;;5046813;28;20474;-84
2023/11/04 06:56:25;;;;;;;7.23;0.90;;;9.00;1.00;;;;;;5022670;28;20473;-82
2023/11/04 06:59:40;;;;;;;0.70;0.70;;;9.00;1.00;;;;;;5015176;28;20446;-83
2023/11/04 07:02:37;;;;;;;3.90;0.80;;;9.10;1.00;;;;;;5019503;28;20442;-81
2023/11/04 07:09:08;;;;;;;0.67;0.67;;;9.20;1.00;;;;;;5009446;28;20452;-81
2023/11/04 07:11:38;;;;;;;0.83;0.80;;;9.20;1.00;;;;;;5036688;28;20384;-81
2023/11/04 07:14:38;;;;;;;0.80;0.80;;;9.10;1.00;;;;;;5017593;28;20388;-82
2023/11/04 07:17:03;;;;;;;1.17;0.80;;;9.00;1.00;;;;;;5016838;28;20439;-68
2023/11/04 07:19:29;;;;;;;5.00;0.80;;;9.20;1.00;;;;;;5034143;28;20415;-68
2023/11/04 07:21:54;;;;;;;0.60;0.60;;;9.10;1.00;;;;;;5027016;28;20267;-69
2023/11/04 07:24:21;;;;;;;1.00;0.70;;;9.20;1.00;;;;;;5034026;28;20184;-68
2023/11/04 07:26:47;;;;;;;0.70;0.70;;;9.20;1.00;;;;;;5023761;28;20197;-71
2023/11/04 07:29:13;;;;;;;1.43;0.93;;;9.30;1.00;;;;;;5030506;28;20429;-71
2023/11/04 07:31:39;;;;;;;0.87;0.80;;;9.30;1.00;;;;;;5013879;28;20511;-72
2023/11/04 07:34:05;;;;;;;1.00;0.80;;;;;;;;;;5015802;28;20185;-71
2023/11/04 07:36:31;;;;;;;0.70;0.70;;;9.30;1.00;;;;;;5017669;28;20843;-71
2023/11/04 07:38:56;;;;;;;3.43;0.77;;;9.30;1.00;;;;;;5015633;28;20423;-71
2023/11/04 07:41:22;;;;;;;2.23;0.80;;;9.30;1.00;;;;;;5016207;28;20247;-71
2023/11/04 07:43:48;;;;;;;5.40;0.83;;;9.50;1.00;;;;;;5028889;28;20662;-71
2023/11/04 07:46:14;;;;;;;2.50;0.93;;;9.40;1.00;;;;;;5018997;28;20205;-71
2023/11/04 07:48:39;;;;;;;0.93;0.87;;;9.50;1.00;;;;;;5024288;28;20513;-71
2023/11/04 07:51:05;;;;;;;1.00;0.60;;;9.60;1.00;;;;;;5015515;28;20515;-71
2023/11/04 07:53:31;;;;;;;1.07;0.70;;;9.60;1.00;;;;;;5021633;28;20207;-71
2023/11/04 07:55:57;;;;;;;3.10;0.80;;;9.60;1.00;;;;;;5020218;28;20437;-71
2023/11/04 07:58:22;;;;;;;1.03;0.70;;;9.70;1.00;;;;;;5015058;28;20188;-71
2023/11/04 08:00:49;;;;;;;0.80;0.80;;;9.80;1.00;;;;;;5011665;28;20663;-71
2023/11/04 08:03:15;;;;;;;0.60;0.60;;;9.80;1.00;;;;;;5019536;28;20187;-71
2023/11/04 08:05:50;;;;;;;0.70;0.70;;;9.80;1.00;;;;;;5014508;28;20460;-88
2023/11/04 08:08:37;;;;;;;2.20;0.77;;;9.90;1.00;;;;;;5016297;28;20948;-88
2023/11/04 08:11:25;;;;;;;0.60;0.60;;;9.80;1.00;;;;;;5016979;28;20412;-88
2023/11/04 08:14:08;;;;;;;0.83;0.70;;;9.90;1.00;;;;;;5016558;28;20390;-81
2023/11/04 08:16:38;;;;;;;0.60;0.60;;;10.00;1.00;;;;;;5015877;28;20428;-82
2023/11/04 08:19:08;;;;;;;0.60;0.60;;;10.00;1.00;;;;;;5027644;28;20440;-82
2023/11/04 08:21:44;;;;;;;2.93;0.70;;;10.10;1.00;;;;;;5021779;28;20782;-82
2023/11/04 08:24:20;;;;;;;0.50;0.50;;;10.10;1.00;;;;;;5015219;28;20448;-81
2023/11/04 08:27:07;;;;;;;1.10;0.60;;;10.20;1.00;;;;;;5013942;28;20451;-87
2023/11/04 08:29:33;;;;;;;1.27;0.50;;;10.40;1.00;;;;;;5014216;28;20924;-88
2023/11/04 08:32:08;;;;;;;0.97;0.60;;;10.50;1.00;;;;;;5011162;28;20425;-89
2023/11/04 08:34:38;;;;;;;1.00;0.70;;;10.30;1.00;;;;;;5004127;28;20176;-87
2023/11/04 08:37:08;;;;;;;0.60;0.60;;;10.40;1.00;;;;;;5017365;28;20432;-87
2023/11/04 08:39:38;;;;;;;6.40;0.60;;;10.40;1.00;;;;;;5014973;28;20440;-88
2023/11/04 08:42:37;;;;;;;3.70;0.60;;;10.40;1.00;;;;;;5016874;28;20472;-87
2023/11/04 08:45:14;;;;;;;0.70;0.57;;;10.50;1.00;;;;;;5011974;28;20463;-86
2023/11/04 08:51:08;;;;;;;0.60;0.60;;;10.70;1.00;;;;;;5010206;28;20403;-86
2023/11/04 08:57:37;;;;;;;0.50;0.50;;;11.00;1.00;;;;;;5000944;28;21303;-82
2023/11/04 09:00:37;;;;;;;0.60;0.60;;;10.70;1.00;;;;;;5013965;28;20423;-82
2023/11/04 09:03:08;;;;;;;0.50;0.50;;;10.70;1.00;;;;;;5012176;28;20432;-82
2023/11/04 09:05:38;;;;;;;0.70;0.70;;;10.70;1.00;;;;;;5015017;28;20460;-83
2023/11/04 09:08:08;;;;;;;0.50;0.50;;;10.70;1.00;;;;;;5015475;28;20511;-82
2023/11/04 09:11:07;;;;;;;2.37;0.80;;;10.70;1.00;;;;;;5014232;28;20416;-82
2023/11/04 09:14:07;;;;;;;3.07;0.50;;;10.70;1.00;;;;;;4999892;28;20968;-81
2023/11/04 09:17:08;;;;;;;3.93;0.70;;;10.80;1.00;;;;;;4996590;28;20396;-80
2023/11/04 09:19:38;;;;;;;0.50;0.50;;;10.80;1.00;;;;;;5009414;28;20431;-82
2023/11/04 09:22:08;;;;;;;1.23;0.57;;;10.90;1.00;;;;;;5011043;28;20416;-84
2023/11/04 09:24:38;;;;;;;0.40;0.40;;;10.90;1.00;;;;;;5030697;28;20922;-82
2023/11/04 09:27:08;;;;;;;0.40;0.40;;;10.90;1.00;;;;;;5017551;28;20955;-83
2023/11/04 09:29:38;;;;;;;0.50;0.50;;;10.90;1.00;;;;;;5013609;28;20453;-86
2023/11/04 09:32:04;;;;;;;8.70;0.80;;;11.00;1.00;;;;;;5014524;28;20404;-86
2023/11/04 09:34:38;;;;;;;1.00;0.50;;;11.00;1.00;;;;;;5014154;28;22063;-86
2023/11/04 09:37:08;;;;;;;0.97;0.60;;;11.10;1.00;;;;;;5014274;28;20958;-78
2023/11/04 09:39:38;;;;;;;0.93;0.50;;;11.10;1.00;;;;;;5012481;28;20448;-78
2023/11/04 09:42:11;;;;;;;0.87;0.50;;;11.00;1.00;;;;;;5014718;28;20822;-78
2023/11/04 09:44:38;;;;;;;0.60;0.50;;;11.00;1.00;;;;;;5033412;28;20410;-78
2023/11/04 09:47:04;;;;;;;3.13;0.50;;;11.10;1.00;;;;;;5024407;28;20556;-78
2023/11/04 09:49:30;;;;;;;2.77;0.60;;;11.20;1.00;;;;;;5026852;28;20409;-78
2023/11/04 09:51:58;;;;;;;1.27;0.70;;;11.40;1.00;;;;;;5014832;28;20423;-77
2023/11/04 09:55:07;;;;;;;0.80;0.50;;;11.60;1.00;;;;;;5013341;28;20662;-78
2023/11/04 09:57:38;;;;;;;0.70;0.50;;;11.90;1.00;;;;;;5009091;28;20412;-77
2023/11/04 10:00:08;;;;;;;0.50;0.50;;;11.90;1.00;;;;;;5025751;28;20749;-78
2023/11/04 10:02:55;;;;;;;0.60;0.50;;;11.80;1.00;;;;;;5013738;28;20444;-78
2023/11/04 10:05:55;;;;;;;0.80;0.63;;;11.90;1.00;;;;;;5015098;28;20441;-77
2023/11/04 10:08:38;;;;;;;0.50;0.50;;;12.00;1.00;;;;;;5027533;28;20397;-78
2023/11/04 10:11:08;;;;;;;0.60;0.60;;;12.00;1.00;;;;;;5021316;28;20422;-78
2023/11/04 10:13:39;;;;;;;0.73;0.50;;;12.10;1.00;;;;;;5014440;28;20415;-74
2023/11/04 10:16:05;;;;;;;0.50;0.50;;;12.20;1.00;;;;;;5014121;28;20428;-73
2023/11/04 10:18:34;;;;;;;0.60;0.40;;;12.30;1.00;;;;;;5013064;28;20481;-73
2023/11/04 10:21:01;;;;;;;1.53;0.67;;;12.40;1.00;;;;;;5019010;28;20835;-74
2023/11/04 10:23:27;;;;;;;2.00;0.70;;;12.50;1.00;;;;;;5017070;28;20424;-73
2023/11/04 10:26:03;;;;;;;0.80;0.50;;;12.40;1.00;;;;;;5027263;28;20934;-74
2023/11/04 10:28:30;;;;;;;0.77;0.53;;;12.70;1.00;;;;;;5024676;28;20400;-77
2023/11/04 10:31:04;;;;;;;1.90;0.50;;;12.90;1.00;;;;;;5027492;28;20405;-78
2023/11/04 10:33:41;;;;;;;0.50;0.50;;;12.80;1.00;;;;;;5020668;28;20436;-78
2023/11/04 10:36:21;;;;;;;2.50;0.50;;;12.90;1.00;;;;;;5012604;28;20406;-78
2023/11/04 10:38:56;;;;;;;1.53;0.53;;;13.00;1.00;;;;;;5018441;28;20485;-77
2023/11/04 10:41:31;;;;;;;0.90;0.50;;;12.90;1.00;;;;;;5018091;28;20446;-77
2023/11/04 10:44:06;;;;;;;1.87;0.83;;;13.00;1.00;;;;;;5021071;28;20419;-77
2023/11/04 10:46:38;;;;;;;0.53;0.50;;;13.00;1.00;;;;;;5018551;28;20458;-77
2023/11/04 10:49:51;;;;;;;1.20;0.53;;;13.30;1.00;;;;;;5019478;28;20459;-77
2023/11/04 10:52:41;;;;;;;1.10;0.50;;;13.30;1.00;;;;;;4971764;28;20795;-77
2023/11/04 10:55:15;;;;;;;0.90;0.40;;;13.30;1.00;;;;;;4956202;28;20823;-77
2023/11/04 10:58:03;;;;;;;0.50;0.47;;;13.30;1.00;;;;;;4943871;29;20880;-76
2023/11/04 11:00:31;;;;;;;1.63;0.60;;;13.20;1.00;;;;;;4934062;29;20951;-73
2023/11/04 11:03:02;;;;;;;0.83;0.50;;;13.10;1.00;;;;;;4947188;28;20489;-73
2023/11/04 11:05:29;;;;;;;0.60;0.50;;;13.10;1.00;;;;;;4948586;28;20500;-74
2023/11/04 11:07:57;;;;;;;0.50;0.50;;;13.10;1.00;;;;;;4953052;28;20447;-73
2023/11/04 11:10:31;;;;;;;0.87;0.57;;;13.10;1.00;;;;;;4961438;28;20422;-73
2023/11/04 11:13:09;;;;;;;1.27;0.40;;;13.20;1.00;;;;;;4955828;28;20438;-73
2023/11/04 11:15:35;;;;;;;1.20;0.77;;;13.20;1.00;;;;;;4947768;29;20442;-73
2023/11/04 11:18:01;;;;;;;0.50;0.50;;;13.20;1.00;;;;;;4953015;28;20405;-73
2023/11/04 11:20:36;;;;;;;2.93;0.60;;;13.50;1.00;;;;;;4957185;28;20445;-72
2023/11/04 11:23:08;;;;;;;0.70;0.50;;;13.50;1.00;;;;;;4953232;29;20426;-72
2023/11/04 11:25:38;;;;;;;0.50;0.40;;;13.30;1.00;;;;;;4952806;28;20458;-72
2023/11/04 11:28:26;;;;;;;0.70;0.50;;;13.20;1.00;;;;;;4947899;28;20473;-73
2023/11/04 11:30:57;;;;;;;0.50;0.40;;;13.10;1.00;;;;;;5032679;28;20767;-73
2023/11/04 11:33:41;;;;;;;1.17;0.60;;;12.90;1.00;;;;;;5026434;28;20934;-74
2023/11/04 11:36:10;;;;;;;0.80;0.40;;;12.90;1.00;;;;;;5021762;28;20498;-75
2023/11/04 11:38:40;;;;;;;0.50;0.50;;;12.80;1.00;;;;;;5029118;28;20430;-74
2023/11/04 11:41:16;;;;;;;1.43;0.50;;;12.90;1.00;;;;;;5012425;28;20425;-74
2023/11/04 11:44:01;;;;;;;0.60;0.60;;;12.90;1.00;;;;;;5030301;28;20455;-77
2023/11/04 11:46:32;;;;;;;0.50;0.40;;;13.10;1.00;;;;;;5020620;28;20430;-76
2023/11/04 11:48:58;;;;;;;0.87;0.50;;;13.10;1.00;;;;;;5017476;28;20458;-76
2023/11/04 11:51:28;;;;;;;0.70;0.57;;;13.00;1.00;;;;;;5016862;28;20463;-76
2023/11/04 11:54:12;;;;;;;1.03;0.50;;;13.10;1.00;;;;;;5024100;28;20163;-77
2023/11/04 11:56:45;;;;;;;0.90;0.53;;;13.10;1.00;;;;;;5023530;28;20402;-77
2023/11/04 11:59:27;;;;;;;6.00;0.70;;;13.00;1.00;;;;;;5026904;28;20415;-75
2023/11/04 12:01:53;;;;;;;0.60;0.60;;;12.80;1.00;;;;;;5035880;28;20887;-75
2023/11/04 12:04:26;;;;;;;3.07;0.67;;;12.60;1.00;;;;;;5022478;28;20440;-75
2023/11/04 12:07:02;;;;;;;1.00;0.67;;;12.70;1.00;;;;;;5010121;28;20437;-73
2023/11/04 12:09:32;;;;;;;2.00;0.60;;;12.70;1.00;;;;;;5019579;28;20455;-74
2023/11/04 12:11:58;;;;;;;0.50;0.50;;;12.80;1.00;;;;;;5025036;28;20405;-73
2023/11/04 12:14:24;;;;;;;3.23;0.70;;;13.00;1.00;;;;;;5013692;28;20509;-76
2023/11/04 12:16:51;;;;;;;0.73;0.50;;;13.00;1.00;;;;;;5028370;28;20828;-73
2023/11/04 12:19:17;;;;;;;1.30;0.60;;;13.20;1.00;;;;;;5018321;28;20394;-73
2023/11/04 12:21:43;;;;;;;3.80;0.80;;;13.10;1.00;;;;;;5018313;28;20739;-73
2023/11/04 12:24:09;;;;;;;0.60;0.50;;;13.10;1.00;;;;;;5014606;28;20185;-73
2023/11/04 12:26:38;;;;;;;0.70;0.50;;;13.00;1.00;;;;;;5023587;28;20434;-73
2023/11/04 12:29:09;;;;;;;17.67;1.33;;;13.00;1.00;;;;;;5016694;28;20908;-75
2023/11/04 12:31:37;;;;;;;0.57;0.57;;;12.80;1.00;;;;;;5014237;28;20432;-77
2023/11/04 12:34:09;;;;;;;0.60;0.40;;;12.80;1.00;;;;;;5034212;28;20486;-78
2023/11/04 12:36:35;;;;;;;1.43;0.50;;;12.80;1.00;;;;;;5015756;28;21003;-76
2023/11/04 12:39:20;;;;;;;0.70;0.53;;;12.70;1.00;;;;;;5025522;28;20397;-76
2023/11/04 12:41:47;;;;;;;0.50;0.50;;;12.70;1.00;;;;;;5017188;28;20946;-76
2023/11/04 12:44:13;;;;;;;0.50;0.50;;;12.80;1.00;;;;;;5009929;28;20769;-73
2023/11/04 12:46:39;;;;;;;0.60;0.60;;;12.70;1.00;;;;;;5009532;28;20477;-73
2023/11/04 12:49:08;;;;;;;0.77;0.57;;;12.70;1.00;;;;;;5018473;28;20439;-74
2023/11/04 12:51:34;;;;;;;1.50;0.50;;;12.60;1.00;;;;;;5019377;28;20893;-73
2023/11/04 12:54:02;;;;;;;11.30;0.77;;;12.60;1.00;;;;;;5027023;28;20411;-74
2023/11/04 12:56:27;;;;;;;1.97;0.73;;;12.60;1.00;;;;;;5027151;28;20988;-74
2023/11/04 12:58:56;;;;;;;0.63;0.50;;;12.50;1.00;;;;;;5011192;28;20435;-74
2023/11/04 13:01:50;;;;;;;0.57;0.50;;;12.60;1.00;;;;;;5029440;28;20216;-76
2023/11/04 13:04:20;;;;;;;0.77;0.60;;;12.50;1.00;;;;;;5018152;28;20427;-76
2023/11/04 13:06:45;;;;;;;0.60;0.60;;;12.50;1.00;;;;;;5019198;28;20435;-75
2023/11/04 13:09:14;;;;;;;1.70;0.50;;;12.40;1.00;;;;;;5014255;28;20447;-76
2023/11/04 13:11:44;;;;;;;0.70;0.60;;;12.30;1.00;;;;;;5015431;28;20248;-76
2023/11/04 13:14:21;;;;;;;2.00;0.53;;;12.30;1.00;;;;;;5002359;28;20478;-75
2023/11/04 13:16:57;;;;;;;3.80;0.80;;;12.20;1.00;;;;;;5024907;28;20419;-74
2023/11/04 13:19:23;;;;;;;0.60;0.60;;;12.20;1.00;;;;;;5015863;28;20439;-73
2023/11/04 13:21:49;;;;;;;2.30;0.90;;;12.10;1.00;;;;;;5026180;28;20488;-74
2023/11/04 13:24:20;;;;;;;0.60;0.60;;;12.00;1.00;;;;;;5016533;28;20526;-74
2023/11/04 13:26:50;;;;;;;0.97;0.60;;;11.90;1.00;;;;;;5027210;28;20991;-74
2023/11/04 13:29:20;;;;;;;1.13;0.77;;;11.80;1.00;;;;;;5028442;28;20474;-74
2023/11/04 13:31:59;;;;;;;0.83;0.80;;;11.70;1.00;;;;;;5028781;28;20937;-76
2023/11/04 13:34:32;;;;;;;1.47;0.70;;;11.70;1.00;;;;;;5034941;28;20418;-76
2023/11/04 13:36:58;;;;;;;0.70;0.70;;;11.60;1.00;;;;;;5018213;28;20438;-76
2023/11/04 13:39:55;;;;;;;2.60;0.70;;;11.50;1.00;;;;;;5015609;28;20473;-77
2023/11/04 13:42:21;;;;;;;1.67;0.70;;;11.40;1.00;;;;;;5013469;28;20442;-76
2023/11/04 13:44:50;;;;;;;0.90;0.63;;;11.30;1.00;;;;;;5013630;28;20479;-75
2023/11/04 13:47:35;;;;;;;0.60;0.57;;;11.20;1.00;;;;;;5016231;28;20459;-76
2023/11/04 13:50:14;;;;;;;1.97;0.73;;;11.20;1.00;;;;;;5020622;28;20447;-76
2023/11/04 13:52:50;;;;;;;0.93;0.80;;;11.00;1.00;;;;;;5020885;28;20470;-77
2023/11/04 13:55:20;;;;;;;10.13;2.10;;;11.00;1.00;;;;;;5012357;28;20434;-76
2023/11/04 13:58:02;;;;;;;0.87;0.80;;;10.80;1.00;;;;;;5026524;28;20921;-76
2023/11/04 14:00:32;;;;;;;1.00;0.87;;;10.80;1.00;;;;;;5022522;28;20453;-73
2023/11/04 14:02:58;;;;;;;4.37;0.63;;;10.80;1.00;;;;;;5033061;28;20886;-73
2023/11/04 14:05:23;;;;;;;1.90;0.90;;;10.80;1.00;;;;;;5018993;28;20517;-73
2023/11/04 14:07:49;;;;;;;0.80;0.80;;;10.90;1.00;;;;;;5029144;28;20173;-73
2023/11/04 14:10:15;;;;;;;0.80;0.80;;;10.90;1.00;;;;;;5033277;28;20171;-73
2023/11/04 14:12:50;;;;;;;0.70;0.70;;;11.00;1.00;;;;;;5020736;28;20256;-73
2023/11/04 14:16:07;;;;;;;0.80;0.80;;;11.00;1.00;;;;;;5034161;28;20187;-77
2023/11/04 14:19:14;;;;;;;0.70;0.70;;;10.90;1.00;;;;;;4999714;28;20424;-77
2023/11/04 14:21:40;;;;;;;0.90;0.90;;;11.00;1.00;;;;;;5012293;28;20906;-77
2023/11/04 14:24:08;;;;;;;3.17;0.90;;;10.90;1.00;;;;;;5032761;28;20428;-78
2023/11/04 14:26:39;;;;;;;1.00;0.90;;;10.80;1.00;;;;;;5017568;28;20197;-77
2023/11/04 14:29:20;;;;;;;0.80;0.70;;;10.90;1.00;;;;;;5014750;28;20422;-77
2023/11/04 14:31:46;;;;;;;2.20;1.10;;;10.60;1.00;;;;;;5032227;28;20418;-73
2023/11/04 14:34:14;;;;;;;0.70;0.70;;;10.60;1.00;;;;;;5014480;28;20481;-73
2023/11/04 14:36:39;;;;;;;2.20;0.83;;;10.60;1.00;;;;;;5025494;28;20418;-73
2023/11/04 14:39:05;;;;;;;2.50;0.83;;;10.30;1.00;;;;;;5028201;28;20451;-73
2023/11/04 14:41:32;;;;;;;4.73;0.80;;;;;;;;;;5021751;28;20199;-73
2023/11/04 14:44:10;;;;;;;1.00;0.80;;;10.00;1.00;;;;;;5012682;28;20280;-73
2023/11/04 14:46:44;;;;;;;0.70;0.70;;;10.00;1.00;;;;;;5027297;28;20508;-77
2023/11/04 14:49:20;;;;;;;2.00;0.80;;;10.00;1.00;;;;;;5014685;28;20431;-77
2023/11/04 14:51:56;;;;;;;0.87;0.70;;;9.90;1.00;;;;;;5017810;28;20838;-77
2023/11/04 14:54:26;;;;;;;0.67;0.67;;;10.00;1.00;;;;;;5021985;28;20444;-77
2023/11/04 15:00:14;;;;;;;0.50;0.50;;;9.90;1.00;;;;;;5034126;28;20422;-74
2023/11/04 15:02:44;;;;;;;0.70;0.70;;;9.80;1.00;;;;;;5020677;28;20416;-73
2023/11/04 15:05:10;;;;;;;0.63;0.60;;;9.60;1.00;;;;;;5018442;28;20407;-74
2023/11/04 15:07:36;;;;;;;1.70;0.80;;;9.60;1.00;;;;;;5027117;28;20421;-73
2023/11/04 15:10:03;;;;;;;0.50;0.50;;;9.70;1.00;;;;;;5025907;28;20165;-73
2023/11/04 15:12:38;;;;;;;0.60;0.53;;;9.70;1.00;;;;;;5013334;28;20450;-73
2023/11/04 15:15:05;;;;;;;0.60;0.60;;;9.80;1.00;;;;;;5008182;28;20791;-74
2023/11/04 15:17:32;;;;;;;1.53;0.70;;;9.70;1.00;;;;;;5016492;28;20465;-74
2023/11/04 15:19:58;;;;;;;1.20;0.60;;;9.80;1.00;;;;;;5025301;28;20412;-73
2023/11/04 15:23:07;;;;;;;0.70;0.70;;;9.80;1.00;;;;;;4998913;28;20954;-73
2023/11/04 15:25:34;;;;;;;0.60;0.60;;;9.80;1.00;;;;;;5032781;28;20275;-73
2023/11/04 15:28:00;;;;;;;0.80;0.60;;;9.80;1.00;;;;;;5019662;28;20423;-73
2023/11/04 15:30:26;;;;;;;3.07;0.70;;;9.80;1.00;;;;;;5015745;28;20416;-75
2023/11/04 15:33:25;;;;;;;0.60;0.60;;;9.70;1.00;;;;;;5023987;28;20414;-84
2023/11/04 15:35:51;;;;;;;6.60;0.97;;;9.70;1.00;;;;;;5017416;28;20264;-82
2023/11/04 15:38:17;;;;;;;1.30;0.87;;;9.60;1.00;;;;;;5028970;28;20465;-82